createdAt,value
2018-07-11T00:01:24.043Z,25.90
2018-07-11T00:03:54.492Z,26.87
2018-07-11T00:06:25.228Z,24.63
2018-07-11T00:08:54.790Z,27.73
2018-07-11T00:11:24.235Z,26.57
2018-07-11T00:13:54.438Z,25.90
2018-07-11T00:16:23.908Z,28.30
2018-07-11T00:18:53.789Z,25.67
2018-07-11T00:21:23.304Z,30.80
2018-07-11T00:23:52.776Z,29.67
2018-07-11T00:26:22.280Z,27.80
2018-07-11T00:28:51.818Z,26.00
2018-07-11T00:31:21.644Z,28.87
2018-07-11T00:33:51.122Z,30.77
2018-07-11T00:36:20.612Z,29.30
2018-07-11T00:38:50.080Z,29.33
2018-07-11T00:41:19.565Z,24.20
2018-07-11T00:43:49.211Z,25.53
2018-07-11T00:46:19.304Z,30.10
2018-07-11T00:48:49.313Z,26.27
2018-07-11T00:51:18.858Z,27.00
2018-07-11T00:53:49.083Z,29.17
2018-07-11T00:56:18.609Z,29.33
2018-07-11T00:58:57.335Z,30.60
2018-07-11T01:01:26.951Z,29.70
2018-07-11T01:04:00.209Z,29.50
2018-07-11T01:06:29.736Z,27.80
2018-07-11T01:09:00.079Z,27.17
2018-07-11T01:11:37.071Z,26.80
2018-07-11T01:14:06.619Z,26.50
2018-07-11T01:16:36.090Z,30.63
2018-07-11T01:19:09.203Z,32.20
2018-07-11T01:21:39.343Z,31.67
2018-07-11T01:24:08.958Z,29.20
2018-07-11T01:26:39.724Z,29.00
2018-07-11T01:29:09.870Z,30.07
2018-07-11T01:31:39.722Z,27.70
2018-07-11T01:34:09.645Z,29.77
2018-07-11T01:36:39.115Z,28.63
2018-07-11T01:39:08.318Z,30.70
2018-07-11T01:41:37.831Z,27.30
2018-07-11T01:44:07.510Z,29.53
2018-07-11T01:46:50.843Z,28.63
2018-07-11T01:49:20.322Z,31.77
2018-07-11T01:52:06.704Z,31.90
2018-07-11T01:54:36.929Z,31.97
2018-07-11T01:57:06.449Z,34.10
2018-07-11T01:59:37.639Z,33.07
2018-07-11T02:02:07.184Z,34.47
2018-07-11T02:04:40.031Z,33.17
2018-07-11T02:07:10.640Z,32.80
2018-07-11T02:09:40.438Z,35.27
2018-07-11T02:12:09.953Z,33.47
2018-07-11T02:14:39.611Z,33.20
2018-07-11T02:17:09.054Z,32.97
2018-07-11T02:19:39.043Z,32.03
2018-07-11T02:22:08.327Z,30.40
2018-07-11T02:24:37.849Z,35.97
2018-07-11T02:27:07.845Z,33.37
2018-07-11T02:29:37.502Z,33.37
2018-07-11T02:32:07.114Z,35.07
2018-07-11T02:34:36.597Z,31.93
2018-07-11T02:37:06.454Z,33.60
2018-07-11T02:39:35.939Z,34.30
2018-07-11T02:42:05.758Z,34.70
2018-07-11T02:44:35.305Z,33.20
2018-07-11T02:47:10.062Z,34.60
2018-07-11T02:49:39.591Z,33.10
2018-07-11T02:52:09.418Z,31.97
2018-07-11T02:54:39.193Z,32.20
2018-07-11T02:57:08.712Z,33.20
2018-07-11T02:59:38.230Z,31.03
2018-07-11T03:02:07.784Z,31.47
2018-07-11T03:04:37.444Z,33.23
2018-07-11T03:07:07.873Z,30.70
2018-07-11T03:09:37.446Z,32.00
2018-07-11T03:12:07.593Z,29.10
2018-07-11T03:14:42.961Z,28.47
2018-07-11T03:17:12.520Z,31.80
2018-07-11T03:19:41.988Z,29.77
2018-07-11T03:22:11.547Z,30.50
2018-07-11T03:24:41.294Z,33.10
2018-07-11T03:27:10.743Z,32.10
2018-07-11T03:29:40.304Z,29.70
2018-07-11T03:32:09.866Z,32.90
2018-07-11T03:34:39.397Z,33.80
2018-07-11T03:37:08.896Z,34.10
2018-07-11T03:39:40.218Z,31.10
2018-07-11T03:42:09.768Z,31.80
2018-07-11T03:44:39.278Z,32.67
2018-07-11T03:47:08.740Z,31.23
2018-07-11T03:49:38.923Z,30.20
2018-07-11T03:52:08.500Z,30.10
2018-07-11T03:54:38.296Z,27.07
2018-07-11T03:57:08.175Z,31.80
2018-07-11T03:59:37.734Z,28.83
2018-07-11T04:02:07.890Z,24.27
2018-07-11T04:04:37.583Z,27.10
2018-07-11T04:07:07.032Z,25.67
2018-07-11T04:09:36.782Z,26.93
2018-07-11T04:12:06.294Z,24.10
2018-07-11T04:14:35.804Z,24.13
2018-07-11T04:17:05.330Z,25.20
2018-07-11T04:19:34.812Z,23.50
2018-07-11T04:22:04.256Z,23.07
2018-07-11T04:24:33.826Z,23.87
2018-07-11T04:27:03.324Z,22.77
2018-07-11T04:29:32.786Z,22.43
2018-07-11T04:32:02.265Z,20.60
2018-07-11T04:34:31.786Z,21.30
2018-07-11T04:37:01.217Z,21.00
2018-07-11T04:39:30.744Z,21.07
2018-07-11T04:42:00.255Z,18.83
2018-07-11T04:44:29.981Z,19.80
2018-07-11T04:46:59.448Z,20.17
2018-07-11T04:49:28.938Z,19.87
2018-07-11T04:51:58.112Z,20.70
2018-07-11T04:54:28.406Z,18.20
2018-07-11T04:56:58.010Z,16.57
2018-07-11T04:59:27.519Z,15.90
2018-07-11T05:01:56.994Z,15.40
2018-07-11T05:04:26.495Z,15.83
2018-07-11T05:06:55.935Z,16.37
2018-07-11T05:09:25.446Z,14.77
2018-07-11T05:11:55.003Z,15.43
2018-07-11T05:14:24.515Z,14.60
2018-07-11T05:16:54.022Z,13.80
2018-07-11T05:19:23.620Z,13.30
2018-07-11T05:21:53.244Z,14.47
2018-07-11T05:24:22.730Z,12.83
2018-07-11T05:26:52.244Z,13.23
2018-07-11T05:29:21.808Z,13.13
2018-07-11T05:31:51.310Z,14.00
2018-07-11T05:34:21.000Z,13.37
2018-07-11T05:36:50.501Z,13.33
2018-07-11T05:39:19.971Z,13.37
2018-07-11T05:41:49.479Z,11.83
2018-07-11T05:44:18.940Z,10.57
2018-07-11T05:46:48.420Z,11.83
2018-07-11T05:49:17.872Z,10.47
2018-07-11T05:51:47.345Z,11.30
2018-07-11T05:54:17.454Z,10.50
2018-07-11T05:56:49.159Z,10.33
2018-07-11T05:59:18.781Z,8.53
2018-07-11T06:01:48.304Z,9.90
2018-07-11T06:04:17.845Z,9.37
2018-07-11T06:06:47.380Z,9.80
2018-07-11T06:09:17.274Z,11.20
2018-07-11T06:11:46.777Z,9.13
2018-07-11T06:14:16.181Z,7.10
2018-07-11T06:16:45.571Z,7.80
2018-07-11T06:19:15.072Z,7.10
2018-07-11T06:21:47.874Z,7.17
2018-07-11T06:24:17.912Z,6.60
2018-07-11T06:26:47.418Z,6.40
2018-07-11T06:29:16.933Z,6.33
2018-07-11T06:31:46.350Z,5.47
2018-07-11T06:34:16.351Z,5.97
2018-07-11T06:36:45.822Z,5.70
2018-07-11T06:39:15.060Z,6.33
2018-07-11T06:41:44.470Z,5.30
2018-07-11T06:44:13.915Z,6.10
2018-07-11T06:46:43.376Z,5.70
2018-07-11T06:49:12.778Z,5.60
2018-07-11T06:51:42.361Z,5.90
2018-07-11T06:54:11.850Z,5.30
2018-07-11T06:56:41.420Z,5.40
2018-07-11T06:59:10.876Z,5.10
2018-07-11T07:01:40.302Z,5.30
2018-07-11T07:04:10.537Z,4.63
2018-07-11T07:06:39.957Z,4.60
2018-07-11T07:09:09.356Z,5.70
2018-07-11T07:11:38.946Z,4.80
2018-07-11T07:14:08.429Z,5.17
2018-07-11T07:16:38.004Z,4.90
2018-07-11T07:19:07.353Z,4.70
2018-07-11T07:21:37.802Z,5.00
2018-07-11T07:24:09.044Z,5.33
2018-07-11T07:26:38.452Z,4.87
2018-07-11T07:29:07.877Z,5.30
2018-07-11T07:31:37.291Z,4.43
2018-07-11T07:34:06.549Z,4.70
2018-07-11T07:36:36.108Z,4.97
2018-07-11T07:39:05.873Z,4.90
2018-07-11T07:41:35.616Z,4.90
2018-07-11T07:44:05.084Z,4.50
2018-07-11T07:46:34.525Z,4.20
2018-07-11T07:49:03.983Z,5.10
2018-07-11T07:51:33.614Z,4.33
2018-07-11T07:54:03.034Z,4.33
2018-07-11T07:56:32.445Z,4.30
2018-07-11T07:59:02.121Z,3.40
2018-07-11T08:01:31.603Z,4.23
2018-07-11T08:04:01.012Z,3.70
2018-07-11T08:06:30.438Z,4.00
2018-07-11T08:08:59.940Z,3.87
2018-07-11T08:11:29.410Z,3.13
2018-07-11T08:13:58.829Z,4.00
2018-07-11T08:16:28.268Z,3.50
2018-07-11T08:18:57.730Z,3.80
2018-07-11T08:21:27.216Z,4.07
2018-07-11T08:24:13.852Z,5.60
2018-07-11T08:27:01.938Z,4.13
2018-07-11T08:29:48.524Z,3.70
2018-07-11T08:33:35.825Z,4.10
2018-07-11T08:36:35.767Z,3.77
2018-07-11T08:39:38.375Z,4.07
2018-07-11T08:44:48.557Z,4.03
2018-07-11T08:47:39.039Z,3.63
2018-07-11T08:50:36.022Z,4.00
2018-07-11T08:55:42.383Z,3.90
2018-07-11T09:00:43.090Z,4.20
2018-07-11T09:03:54.356Z,4.00
2018-07-11T09:06:39.140Z,4.47
2018-07-11T09:09:56.342Z,4.20
2018-07-11T09:14:46.542Z,4.67
2018-07-11T09:19:04.858Z,3.70
2018-07-11T09:24:11.990Z,4.20
2018-07-11T09:26:41.375Z,4.00
